createdAt,value
2023-02-23T00:02:07.476Z,97186.16
2023-02-23T00:04:35.928Z,97191.31
2023-02-23T00:07:03.383Z,97196.25
2023-02-23T00:09:35.759Z,97195.44
2023-02-23T00:12:08.326Z,97194.94
2023-02-23T00:14:38.594Z,97193.44
2023-02-23T00:17:14.969Z,97181.78
2023-02-23T00:19:44.005Z,97185.44
2023-02-23T00:22:12.347Z,97194.63
2023-02-23T00:24:40.771Z,97183.75
2023-02-23T00:27:07.882Z,97177.16
2023-02-23T00:29:39.596Z,97182.41
2023-02-23T00:32:06.917Z,97181.41
2023-02-23T00:34:36.096Z,97172.00
2023-02-23T00:37:03.954Z,97187.09
2023-02-23T00:39:30.841Z,97180.50
2023-02-23T00:42:03.329Z,97173.19
2023-02-23T00:44:32.523Z,97183.38
2023-02-23T00:47:00.351Z,97176.25
2023-02-23T00:49:27.682Z,97188.25
2023-02-23T00:51:55.440Z,97176.75
2023-02-23T00:54:22.519Z,97175.00
2023-02-23T00:56:50.644Z,97176.81
2023-02-23T00:59:19.876Z,97174.53
2023-02-23T01:01:47.107Z,97171.72
2023-02-23T01:04:14.763Z,97176.53
2023-02-23T01:06:42.704Z,97168.44
2023-02-23T01:09:13.693Z,97162.38
2023-02-23T01:11:41.702Z,97173.00
2023-02-23T01:14:10.603Z,97164.13
2023-02-23T01:16:39.156Z,97171.00
2023-02-23T01:19:06.457Z,97153.69
2023-02-23T01:21:40.239Z,97157.22
2023-02-23T01:24:07.437Z,97167.38
2023-02-23T01:26:38.687Z,97171.25
2023-02-23T01:29:15.210Z,97172.03
2023-02-23T01:31:45.398Z,97151.19
2023-02-23T01:34:15.811Z,97158.59
2023-02-23T01:36:45.266Z,97168.53
2023-02-23T01:39:17.791Z,97165.97
2023-02-23T01:41:45.501Z,97157.78
2023-02-23T01:44:15.518Z,97167.72
2023-02-23T01:46:45.612Z,97156.81
2023-02-23T01:49:16.496Z,97167.03
2023-02-23T01:51:50.332Z,97150.72
2023-02-23T01:54:25.052Z,97160.84
2023-02-23T01:56:58.573Z,97156.75
2023-02-23T01:59:38.340Z,97150.88
2023-02-23T02:02:05.798Z,97158.28
2023-02-23T02:04:44.848Z,97140.19
2023-02-23T02:07:20.860Z,97156.16
2023-02-23T02:10:10.057Z,97151.59
2023-02-23T02:12:52.202Z,97145.53
2023-02-23T02:15:22.698Z,97147.53
2023-02-23T02:18:09.585Z,97153.59
2023-02-23T02:21:11.817Z,97151.03
2023-02-23T02:23:42.249Z,97151.03
2023-02-23T02:26:39.031Z,97148.22
2023-02-23T02:29:11.942Z,97146.19
2023-02-23T02:32:01.595Z,97153.31
2023-02-23T02:35:05.180Z,97159.69
2023-02-23T02:38:11.028Z,97150.00
2023-02-23T02:41:01.792Z,97138.56
2023-02-23T02:43:38.102Z,97144.94
2023-02-23T02:46:16.218Z,97139.31
2023-02-23T02:49:14.314Z,97147.94
2023-02-23T02:51:47.581Z,97152.03
2023-02-23T02:54:43.944Z,97148.47
2023-02-23T02:57:13.972Z,97147.53
2023-02-23T03:00:04.973Z,97145.94
2023-02-23T03:02:53.335Z,97144.47
2023-02-23T03:05:42.900Z,97148.56
2023-02-23T03:08:37.624Z,97152.66
2023-02-23T03:11:29.708Z,97156.03
2023-02-23T03:14:41.178Z,97160.34
2023-02-23T03:17:46.758Z,97163.38
2023-02-23T03:20:51.435Z,97146.03
2023-02-23T03:23:58.632Z,97154.75
2023-02-23T03:26:55.263Z,97157.59
2023-02-23T03:29:44.102Z,97158.34
2023-02-23T03:32:39.807Z,97156.34
2023-02-23T03:35:32.257Z,97158.63
2023-02-23T03:38:46.043Z,97166.03
2023-02-23T03:41:35.017Z,97157.72
2023-02-23T03:44:31.677Z,97164.59
2023-02-23T03:47:19.825Z,97164.91
2023-02-23T03:50:08.494Z,97167.19
2023-02-23T03:53:01.736Z,97171.81
2023-02-23T03:55:53.113Z,97169.00
2023-02-23T03:58:47.110Z,97168.78
2023-02-23T04:01:35.749Z,97165.25
2023-02-23T04:04:23.378Z,97160.16
2023-02-23T04:07:11.261Z,97160.16
2023-02-23T04:09:57.042Z,97158.13
2023-02-23T04:12:59.046Z,97154.59
2023-02-23T04:15:34.131Z,97170.84
2023-02-23T04:18:04.957Z,97162.50
2023-02-23T04:20:32.539Z,97172.47
2023-02-23T04:23:00.219Z,97174.97
2023-02-23T04:25:28.635Z,97161.78
2023-02-23T04:27:56.006Z,97166.91
2023-02-23T04:30:28.690Z,97164.09
2023-02-23T04:32:56.798Z,97168.72
2023-02-23T04:35:23.952Z,97151.16
2023-02-23T04:37:51.161Z,97164.41
2023-02-23T04:40:18.726Z,97158.31
2023-02-23T04:42:46.378Z,97173.09
2023-02-23T04:45:15.061Z,97171.56
2023-02-23T04:47:42.392Z,97168.03
2023-02-23T04:50:10.435Z,97169.28
2023-02-23T04:52:39.181Z,97168.31
2023-02-23T04:55:08.629Z,97174.19
2023-02-23T04:57:36.270Z,97179.00
2023-02-23T05:00:04.926Z,97164.28
2023-02-23T05:02:32.414Z,97174.97
2023-02-23T05:04:59.538Z,97187.66
2023-02-23T05:07:26.687Z,97178.25
2023-02-23T05:09:53.900Z,97175.97
2023-02-23T05:12:21.177Z,97174.22
2023-02-23T05:14:48.289Z,97180.31
2023-02-23T05:17:15.577Z,97176.50
2023-02-23T05:19:42.835Z,97175.75
2023-02-23T05:22:12.858Z,97187.44
2023-02-23T05:24:41.084Z,97175.22
2023-02-23T05:27:20.366Z,97177.28
2023-02-23T05:29:51.723Z,97181.56
2023-02-23T05:32:18.932Z,97175.22
2023-02-23T05:35:06.107Z,97180.56
2023-02-23T05:40:45.494Z,97184.38
2023-02-23T05:43:14.677Z,97183.09
2023-02-23T05:45:43.407Z,97184.13
2023-02-23T07:56:12.580Z,97258.59
2023-02-23T08:25:02.093Z,97280.88
2023-02-23T08:27:29.383Z,97274.25
2023-02-23T08:29:56.885Z,97280.56
2023-02-23T08:32:23.733Z,97275.72
2023-02-23T08:34:50.603Z,97283.06
2023-02-23T08:37:17.414Z,97285.53
2023-02-23T08:39:44.406Z,97274.50
2023-02-23T08:42:11.136Z,97284.91
2023-02-23T08:44:37.935Z,97276.69
2023-02-23T08:47:05.134Z,97281.47
2023-02-23T08:49:33.157Z,97278.06
2023-02-23T08:51:59.917Z,97276.75
2023-02-23T08:54:27.259Z,97277.22
2023-02-23T08:56:56.971Z,97277.72
2023-02-23T08:59:24.042Z,97278.69
2023-02-23T09:01:50.858Z,97280.69
2023-02-23T09:04:18.689Z,97277.84
2023-02-23T09:06:47.623Z,97281.59
2023-02-23T09:09:14.933Z,97275.38
2023-02-23T09:24:28.864Z,97266.38
2023-02-23T09:27:07.327Z,97272.00
2023-02-23T09:29:38.265Z,97277.94
2023-02-23T09:32:05.548Z,97277.16
2023-02-23T09:34:32.662Z,97273.59
2023-02-23T09:37:02.891Z,97279.53
2023-02-23T09:39:38.252Z,97278.50
2023-02-23T09:42:08.727Z,97281.81
2023-02-23T09:45:13.448Z,97279.16
2023-02-23T09:47:55.054Z,97277.28
2023-02-23T09:50:25.713Z,97279.03
2023-02-23T09:53:01.330Z,97281.00
2023-02-23T09:55:29.426Z,97283.31
2023-02-23T09:58:02.412Z,97281.00
2023-02-23T10:00:31.361Z,97289.75
2023-02-23T10:03:22.470Z,97281.06
2023-02-23T10:05:58.561Z,97285.97
2023-02-23T10:08:49.467Z,97290.06
2023-02-23T10:11:24.005Z,97288.00
2023-02-23T10:14:20.759Z,97295.91
2023-02-23T10:17:01.093Z,97291.81
2023-02-23T10:20:00.135Z,97296.38
2023-02-23T10:22:29.077Z,97290.28
2023-02-23T10:25:03.311Z,97296.66
2023-02-23T10:27:37.961Z,97302.00
2023-02-23T10:30:24.343Z,97296.38
2023-02-23T10:32:59.490Z,97289.25
2023-02-23T10:35:29.693Z,97289.25
2023-02-23T10:37:58.083Z,97296.59
2023-02-23T10:40:28.970Z,97296.81
2023-02-23T10:42:58.423Z,97298.06
2023-02-23T10:45:27.635Z,97291.91
2023-02-23T10:48:02.042Z,97295.19
2023-02-23T10:50:32.171Z,97292.06
2023-02-23T10:53:24.570Z,97293.53
2023-02-23T10:56:16.303Z,97289.88
2023-02-23T10:58:58.142Z,97293.69
2023-02-23T11:02:00.872Z,97289.28
2023-02-23T11:04:35.225Z,97283.66
2023-02-23T11:07:10.265Z,97288.56
2023-02-23T11:09:46.596Z,97284.25
2023-02-23T11:12:25.647Z,97279.22
2023-02-23T11:14:55.279Z,97273.38
2023-02-23T11:17:30.414Z,97283.81
2023-02-23T11:20:02.510Z,97282.72
2023-02-23T11:22:37.559Z,97282.50
2023-02-23T11:25:17.024Z,97273.31
2023-02-23T11:27:51.808Z,97279.69
2023-02-23T11:30:24.433Z,97275.88
2023-02-23T11:32:54.893Z,97273.59
2023-02-23T11:35:21.805Z,97276.72
2023-02-23T11:37:50.970Z,97271.59
2023-02-23T11:40:26.460Z,97265.97
2023-02-23T11:43:10.793Z,97273.13
2023-02-23T11:45:49.395Z,97260.34
2023-02-23T11:48:26.645Z,97267.50
2023-02-23T11:50:55.118Z,97267.06
2023-02-23T11:53:37.968Z,97268.13
2023-02-23T11:56:13.367Z,97267.09
2023-02-23T11:58:45.107Z,97266.38
2023-02-23T12:01:17.410Z,97267.66
2023-02-23T12:03:56.006Z,97268.63
2023-02-23T12:06:39.540Z,97265.31
2023-02-23T12:09:24.189Z,97258.41
2023-02-23T12:12:00.912Z,97252.00
2023-02-23T12:14:39.108Z,97256.09
2023-02-23T12:17:38.000Z,97258.16
2023-02-23T12:20:24.528Z,97256.94
2023-02-23T12:22:59.206Z,97263.06
2023-02-23T12:25:57.818Z,97249.56
2023-02-23T12:29:20.612Z,97251.59
2023-02-23T12:31:54.124Z,97247.56
2023-02-23T12:34:39.540Z,97248.84
2023-02-23T12:37:31.495Z,97246.03
2023-02-23T12:40:08.316Z,97245.28
2023-02-23T12:43:17.801Z,97246.34
2023-02-23T12:45:55.315Z,97243.28
2023-02-23T12:48:41.115Z,97245.63
2023-02-23T12:51:25.838Z,97232.03
2023-02-23T12:53:53.454Z,97235.09
2023-02-23T12:56:23.301Z,97239.13
2023-02-23T12:59:14.615Z,97234.94
2023-02-23T13:01:56.233Z,97227.72
2023-02-23T13:04:55.279Z,97233.53
2023-02-23T13:08:12.983Z,97235.50
2023-02-23T13:11:09.924Z,97229.34
2023-02-23T13:14:01.263Z,97226.00
2023-02-23T13:16:51.727Z,97228.75
2023-02-23T13:19:32.534Z,97221.81
2023-02-23T13:22:08.024Z,97227.22
2023-02-23T13:25:00.383Z,97232.78
2023-02-23T13:27:47.105Z,97220.44
2023-02-23T13:30:16.995Z,97225.00
2023-02-23T13:33:06.515Z,97220.28
2023-02-23T13:35:39.521Z,97227.34
2023-02-23T13:38:35.014Z,97222.31
2023-02-23T13:41:18.180Z,97215.59
2023-02-23T13:44:22.674Z,97217.34
2023-02-23T13:46:57.718Z,97216.53
2023-02-23T13:49:36.497Z,97212.09
2023-02-23T13:52:14.551Z,97198.13
2023-02-23T13:54:53.573Z,97202.59
2023-02-23T13:57:22.937Z,97202.28
2023-02-23T13:59:51.641Z,97199.69
2023-02-23T14:02:41.326Z,97200.00
2023-02-23T14:05:18.876Z,97193.91
2023-02-23T14:07:52.074Z,97202.91
2023-02-23T14:10:29.961Z,97200.94
2023-02-23T14:13:03.117Z,97204.63
2023-02-23T14:15:39.705Z,97204.63
2023-02-23T14:18:20.295Z,97206.16
2023-02-23T14:20:53.649Z,97210.31
2023-02-23T14:24:08.728Z,97208.47
2023-02-23T14:26:39.302Z,97209.06
2023-02-23T14:29:27.797Z,97208.31
2023-02-23T14:32:05.030Z,97205.28
2023-02-23T14:34:54.106Z,97205.28
2023-02-23T14:37:26.011Z,97201.94
2023-02-23T14:40:18.703Z,97199.78
2023-02-23T14:42:53.818Z,97201.06
2023-02-23T14:45:27.523Z,97207.72
2023-02-23T14:48:17.438Z,97198.94
2023-02-23T14:50:47.063Z,97202.19
2023-02-23T14:53:22.346Z,97197.00
2023-02-23T14:55:50.534Z,97199.31
2023-02-23T14:58:35.469Z,97200.06
2023-02-23T15:01:02.421Z,97195.94
2023-02-23T15:03:30.590Z,97197.47
2023-02-23T15:06:00.691Z,97198.00
2023-02-23T15:08:30.566Z,97194.44
2023-02-23T15:11:11.016Z,97194.44
2023-02-23T15:13:42.777Z,97204.16
2023-02-23T15:16:23.342Z,97200.28
2023-02-23T15:19:31.133Z,97187.72
2023-02-23T15:22:00.937Z,97187.47
2023-02-23T15:24:42.653Z,97194.88
2023-02-23T15:27:29.018Z,97186.63
2023-02-23T15:29:57.122Z,97185.13
2023-02-23T15:32:26.336Z,97190.78
2023-02-23T15:34:56.631Z,97193.03
2023-02-23T15:37:29.446Z,97190.78
2023-02-23T15:40:05.464Z,97183.94
2023-02-23T15:42:49.339Z,97181.19
2023-02-23T15:45:54.698Z,97182.28
2023-02-23T15:48:28.893Z,97185.63
2023-02-23T15:50:57.998Z,97177.19
2023-02-23T15:53:33.674Z,97179.75
2023-02-23T15:56:28.131Z,97188.97
2023-02-23T15:59:04.151Z,97180.06
2023-02-23T16:01:32.755Z,97173.25
2023-02-23T16:04:16.354Z,97185.06
2023-02-23T16:06:55.790Z,97184.81
2023-02-23T16:09:24.372Z,97180.03
2023-02-23T16:12:04.992Z,97176.25
2023-02-23T16:14:46.936Z,97185.44
2023-02-23T16:17:21.535Z,97190.06
2023-02-23T16:19:48.929Z,97182.19
2023-02-23T16:22:23.382Z,97190.38
2023-02-23T16:25:01.078Z,97192.00
2023-02-23T16:27:30.426Z,97191.03
2023-02-23T16:30:25.931Z,97182.13
2023-02-23T16:33:11.862Z,97178.84
2023-02-23T16:35:46.060Z,97185.78
2023-02-23T16:38:33.624Z,97182.97
2023-02-23T16:41:03.973Z,97187.28
2023-02-23T16:43:35.516Z,97194.97
2023-02-23T16:46:03.072Z,97184.25
2023-02-23T16:48:30.472Z,97194.22
2023-02-23T16:51:02.057Z,97187.06
2023-02-23T16:53:30.333Z,97191.94
2023-02-23T16:56:01.314Z,97194.75
2023-02-23T16:58:30.908Z,97195.50
2023-02-23T17:00:58.427Z,97194.97
2023-02-23T17:03:27.677Z,97196.47
2023-02-23T17:05:55.536Z,97205.94
2023-02-23T17:08:23.384Z,97203.88
2023-02-23T17:10:52.908Z,97206.13
2023-02-23T17:13:25.484Z,97199.97
2023-02-23T17:15:56.451Z,97203.56
2023-02-23T17:18:31.989Z,97204.84
2023-02-23T17:21:02.799Z,97203.56
2023-02-23T17:23:50.933Z,97198.69
2023-02-23T17:26:21.455Z,97209.94
2023-02-23T17:28:49.169Z,97201.50
2023-02-23T17:31:18.483Z,97202.03
2023-02-23T17:33:46.510Z,97207.47
2023-02-23T17:36:17.521Z,97202.09
2023-02-23T17:38:48.008Z,97199.84
2023-02-23T17:41:20.560Z,97202.41
2023-02-23T17:43:47.794Z,97197.88
2023-02-23T17:46:17.382Z,97206.06
2023-02-23T17:48:46.885Z,97207.91
2023-02-23T17:51:17.037Z,97208.75
2023-02-23T17:53:45.521Z,97214.44
2023-02-23T17:56:12.668Z,97207.59
2023-02-23T17:58:40.573Z,97203.78
2023-02-23T18:01:09.333Z,97204.09
2023-02-23T18:03:37.506Z,97200.75
2023-02-23T18:06:10.110Z,97205.91
2023-02-23T18:08:38.791Z,97205.91
2023-02-23T18:11:06.497Z,97189.34
2023-02-23T18:13:41.386Z,97196.50
2023-02-23T18:16:11.083Z,97200.59
2023-02-23T18:18:39.950Z,97198.31
2023-02-23T18:21:13.074Z,97194.19
2023-02-23T18:23:41.830Z,97209.53
2023-02-23T18:26:17.927Z,97209.53
2023-02-23T18:28:46.380Z,97196.56
2023-02-23T18:31:23.756Z,97199.38
2023-02-23T18:33:55.053Z,97205.00
2023-02-23T18:36:24.859Z,97200.91
2023-02-23T18:38:52.560Z,97204.69
2023-02-23T18:41:20.449Z,97205.69
2023-02-23T18:43:48.081Z,97187.53
2023-02-23T18:46:16.263Z,97192.41
2023-02-23T18:48:44.160Z,97193.91
2023-02-23T18:51:14.924Z,97199.00
2023-02-23T18:53:42.844Z,97196.50
2023-02-23T18:56:16.008Z,97198.03
2023-02-23T18:58:45.186Z,97196.50
2023-02-23T19:01:13.718Z,97194.44
2023-02-23T19:03:41.891Z,97188.81
2023-02-23T19:06:10.644Z,97192.41
2023-02-23T19:08:37.961Z,97195.97
2023-02-23T19:11:05.277Z,97185.69
2023-02-23T19:13:32.242Z,97193.16
2023-02-23T19:16:04.794Z,97186.78
2023-02-23T19:18:32.229Z,97182.44
2023-02-23T19:20:59.186Z,97172.78
2023-02-23T19:23:26.130Z,97177.19
2023-02-23T19:25:54.337Z,97169.06
2023-02-23T19:28:22.491Z,97181.59
2023-02-23T19:30:50.627Z,97168.81
2023-02-23T19:33:18.629Z,97164.47
2023-02-23T19:35:45.763Z,97167.06
2023-02-23T19:38:12.843Z,97170.66
2023-02-23T19:40:43.889Z,97167.59
2023-02-23T19:43:12.763Z,97166.81
2023-02-23T19:45:46.824Z,97154.81
2023-02-23T19:48:15.939Z,97161.19
2023-02-23T19:50:49.686Z,97162.72
2023-02-23T19:53:16.957Z,97172.22
2023-02-23T19:55:45.472Z,97167.13
2023-02-23T19:58:13.425Z,97159.47
2023-02-23T20:00:40.539Z,97162.28
2023-02-23T20:03:07.618Z,97166.63
2023-02-23T20:05:43.346Z,97158.19
2023-02-23T20:08:10.431Z,97167.91
2023-02-23T20:10:41.679Z,97162.56
2023-02-23T20:13:08.822Z,97165.38
2023-02-23T20:15:37.601Z,97161.28
2023-02-23T20:18:07.393Z,97159.97
2023-02-23T20:20:35.973Z,97159.25
2023-02-23T20:23:08.275Z,97156.97
2023-02-23T20:25:36.268Z,97161.03
2023-02-23T20:28:03.884Z,97157.22
2023-02-23T20:30:31.051Z,97156.78
2023-02-23T20:33:02.448Z,97151.97
2023-02-23T20:35:32.557Z,97156.88
2023-02-23T20:38:00.016Z,97157.50
2023-02-23T20:40:27.843Z,97157.03
2023-02-23T20:42:54.885Z,97160.97
2023-02-23T20:45:24.607Z,97161.81
2023-02-23T20:47:53.481Z,97157.56
2023-02-23T20:50:25.795Z,97157.84
2023-02-23T20:52:52.857Z,97164.03
2023-02-23T20:55:22.480Z,97159.50
2023-02-23T20:57:49.707Z,97163.31
2023-02-23T21:00:24.359Z,97165.91
2023-02-23T21:02:55.863Z,97163.09
2023-02-23T21:05:26.390Z,97157.50
2023-02-23T21:07:53.568Z,97161.59
2023-02-23T21:10:21.708Z,97168.47
2023-02-23T21:12:50.223Z,97156.56
2023-02-23T21:15:17.372Z,97164.72
2023-02-23T21:17:44.628Z,97160.94
2023-02-23T21:20:14.134Z,97160.16
2023-02-23T21:22:41.233Z,97159.41
2023-02-23T21:25:10.951Z,97151.50
2023-02-23T21:27:39.600Z,97153.53
2023-02-23T21:30:09.700Z,97156.88
2023-02-23T21:32:41.550Z,97146.94
2023-02-23T21:35:13.366Z,97148.47
2023-02-23T21:37:42.033Z,97143.88
2023-02-23T21:40:12.208Z,97151.03
2023-02-23T21:42:41.079Z,97148.00
2023-02-23T21:45:11.133Z,97144.44
2023-02-23T21:47:41.851Z,97147.75
2023-02-23T21:50:14.011Z,97152.09
2023-02-23T21:52:46.096Z,97146.47
2023-02-23T21:55:23.417Z,97145.44
2023-02-23T21:57:52.107Z,97141.16
2023-02-23T22:00:20.986Z,97146.00
2023-02-23T22:02:48.553Z,97135.28
2023-02-23T22:05:17.900Z,97141.66
2023-02-23T22:07:50.239Z,97142.94
2023-02-23T22:10:18.990Z,97138.38
2023-02-23T22:12:46.184Z,97132.78
2023-02-23T22:15:15.885Z,97132.31
2023-02-23T22:17:44.446Z,97127.97
2023-02-23T22:20:14.283Z,97129.25
2023-02-23T22:22:43.017Z,97130.28
2023-02-23T22:25:10.633Z,97130.28
2023-02-23T22:27:37.913Z,97125.97
2023-02-23T22:30:07.731Z,97130.81
2023-02-23T22:32:36.941Z,97128.75
2023-02-23T22:35:06.304Z,97131.34
2023-02-23T22:37:33.854Z,97127.03
2023-02-23T22:40:13.193Z,97128.28
2023-02-23T22:42:40.235Z,97127.53
2023-02-23T22:45:13.126Z,97125.75
2023-02-23T22:47:43.358Z,97129.81
2023-02-23T22:50:18.396Z,97129.06
2023-02-23T22:55:38.788Z,97128.75
2023-02-23T22:58:12.346Z,97121.41
2023-02-23T23:00:42.129Z,97122.69
2023-02-23T23:03:10.628Z,97127.31
2023-02-23T23:05:39.786Z,97119.97
2023-02-23T23:08:09.986Z,97114.66
2023-02-23T23:10:38.170Z,97117.97
2023-02-23T23:13:05.624Z,97120.31
2023-02-23T23:15:32.872Z,97117.03
2023-02-23T23:17:59.981Z,97109.41
2023-02-23T23:20:26.927Z,97114.75
2023-02-23T23:22:54.965Z,97103.56
2023-02-23T23:25:23.454Z,97106.34
2023-02-23T23:27:54.795Z,97110.47
2023-02-23T23:30:21.847Z,97106.13
2023-02-23T23:32:49.448Z,97107.91
2023-02-23T23:35:16.840Z,97104.13
2023-02-23T23:37:44.284Z,97099.03
2023-02-23T23:40:14.564Z,97096.75
2023-02-23T23:42:46.879Z,97093.19
2023-02-23T23:45:16.492Z,97091.66
2023-02-23T23:47:45.294Z,97090.13
2023-02-23T23:50:14.496Z,97089.63
2023-02-23T23:52:44.714Z,97088.34
2023-02-23T23:55:15.194Z,97081.22
2023-02-23T23:57:44.460Z,97089.38
